createdAt,value
2023-01-24T00:00:08.156Z,2.09
2023-01-24T00:01:12.439Z,2.08
2023-01-24T00:02:16.636Z,2.09
2023-01-24T00:03:20.922Z,2.11
2023-01-24T00:04:24.898Z,2.14
2023-01-24T00:05:43.092Z,2.19
2023-01-24T00:06:45.815Z,2.26
2023-01-24T00:07:50.059Z,2.31
2023-01-24T00:08:54.110Z,2.33
2023-01-24T00:09:58.271Z,2.34
2023-01-24T00:11:02.544Z,2.37
2023-01-24T00:12:06.631Z,2.35
2023-01-24T00:13:13.776Z,2.32
2023-01-24T00:14:17.175Z,2.27
2023-01-24T00:15:21.561Z,2.22
2023-01-24T00:16:25.545Z,2.20
2023-01-24T00:17:29.455Z,2.14
2023-01-24T00:18:33.887Z,2.08
2023-01-24T00:19:37.962Z,2.01
2023-01-24T00:20:42.107Z,2.00
2023-01-24T00:21:46.314Z,1.98
2023-01-24T00:22:50.492Z,2.00
2023-01-24T00:23:54.748Z,2.04
2023-01-24T00:24:58.818Z,2.07
2023-01-24T00:26:03.374Z,2.12
2023-01-24T00:27:07.412Z,2.14
2023-01-24T00:28:11.594Z,2.17
2023-01-24T00:29:15.784Z,2.20
2023-01-24T00:30:19.811Z,2.25
2023-01-24T00:31:24.181Z,2.31
2023-01-24T00:32:28.297Z,2.36
2023-01-24T00:33:32.432Z,2.37
2023-01-24T00:34:50.671Z,2.33
2023-01-24T00:35:53.586Z,2.29
2023-01-24T00:36:57.626Z,2.25
2023-01-24T00:38:01.785Z,2.25
2023-01-24T00:39:05.954Z,2.24
2023-01-24T00:40:10.135Z,2.23
2023-01-24T00:41:14.242Z,2.21
2023-01-24T00:42:18.426Z,2.19
2023-01-24T00:43:22.681Z,2.18
2023-01-24T00:44:26.824Z,2.17
2023-01-24T00:45:31.131Z,2.16
2023-01-24T00:46:35.286Z,2.16
2023-01-24T00:47:39.372Z,2.16
2023-01-24T00:48:43.801Z,2.16
2023-01-24T00:49:47.836Z,2.15
2023-01-24T00:50:52.014Z,2.15
2023-01-24T00:51:56.079Z,2.15
2023-01-24T00:53:00.376Z,2.15
2023-01-24T00:54:04.539Z,2.16
2023-01-24T00:55:08.775Z,2.15
2023-01-24T00:56:12.958Z,2.15
2023-01-24T00:57:17.110Z,2.15
2023-01-24T00:58:21.310Z,2.16
2023-01-24T00:59:25.557Z,2.15
2023-01-24T01:00:29.806Z,2.15
2023-01-24T01:01:33.943Z,2.14
2023-01-24T01:02:38.124Z,2.15
2023-01-24T01:03:42.396Z,2.12
2023-01-24T01:04:46.480Z,2.10
2023-01-24T01:05:50.661Z,2.10
2023-01-24T01:06:54.936Z,2.09
2023-01-24T01:07:59.071Z,2.08
2023-01-24T01:09:03.195Z,2.06
2023-01-24T01:10:07.351Z,2.06
2023-01-24T01:11:11.632Z,2.06
2023-01-24T01:12:15.652Z,2.07
2023-01-24T01:13:19.845Z,2.07
2023-01-24T01:14:24.058Z,2.08
2023-01-24T01:15:28.214Z,2.09
2023-01-24T01:16:32.435Z,2.11
2023-01-24T01:17:36.599Z,2.12
2023-01-24T01:18:40.827Z,2.15
2023-01-24T01:19:44.941Z,2.17
2023-01-24T01:20:49.198Z,2.18
2023-01-24T01:21:53.309Z,2.21
2023-01-24T01:22:57.488Z,2.21
2023-01-24T01:24:01.885Z,2.23
2023-01-24T01:25:05.923Z,2.25
2023-01-24T01:26:10.115Z,2.28
2023-01-24T01:27:14.244Z,2.29
2023-01-24T01:28:18.399Z,2.30
2023-01-24T01:29:22.564Z,2.33
2023-01-24T01:30:26.647Z,2.33
2023-01-24T01:31:30.987Z,2.32
2023-01-24T01:32:35.180Z,2.30
2023-01-24T01:33:39.310Z,2.28
2023-01-24T01:34:43.552Z,2.27
2023-01-24T01:35:47.770Z,2.26
2023-01-24T01:36:51.985Z,2.24
2023-01-24T01:37:56.022Z,2.23
2023-01-24T01:39:00.360Z,2.23
2023-01-24T01:40:04.360Z,2.24
2023-01-24T01:41:08.562Z,2.24
2023-01-24T01:42:12.763Z,2.24
2023-01-24T01:43:17.004Z,2.24
2023-01-24T01:44:21.008Z,2.23
2023-01-24T01:45:25.419Z,2.23
2023-01-24T01:46:43.573Z,2.23
2023-01-24T01:47:46.363Z,2.23
2023-01-24T01:48:53.518Z,2.24
2023-01-24T01:49:56.709Z,2.25
2023-01-24T01:51:00.977Z,2.27
2023-01-24T01:52:05.073Z,2.27
2023-01-24T01:53:10.079Z,2.28
2023-01-24T01:54:14.174Z,2.26
2023-01-24T01:55:18.042Z,2.23
2023-01-24T01:56:22.291Z,2.19
2023-01-24T01:57:26.633Z,2.18
2023-01-24T01:58:30.780Z,2.19
2023-01-24T01:59:34.921Z,2.20
2023-01-24T02:00:39.228Z,2.17
2023-01-24T02:01:43.169Z,2.19
2023-01-24T02:02:47.398Z,2.20
2023-01-24T02:03:51.605Z,2.20
2023-01-24T02:04:55.702Z,2.18
2023-01-24T02:05:59.993Z,2.13
2023-01-24T02:07:04.134Z,2.11
2023-01-24T02:08:08.404Z,2.08
2023-01-24T02:09:12.484Z,2.06
2023-01-24T02:10:16.746Z,2.03
2023-01-24T02:11:20.717Z,2.01
2023-01-24T02:12:25.048Z,1.96
2023-01-24T02:13:29.078Z,1.90
2023-01-24T02:14:33.318Z,1.88
2023-01-24T02:15:37.358Z,1.88
2023-01-24T02:16:41.559Z,1.89
2023-01-24T02:17:45.820Z,1.90
2023-01-24T02:18:50.014Z,1.92
2023-01-24T02:19:54.145Z,1.91
2023-01-24T02:20:58.357Z,1.91
2023-01-24T02:22:02.586Z,1.87
2023-01-24T02:23:06.782Z,1.88
2023-01-24T02:24:10.918Z,1.89
2023-01-24T02:25:15.159Z,1.89
2023-01-24T02:26:19.310Z,1.91
2023-01-24T02:27:23.374Z,1.90
2023-01-24T02:28:27.582Z,1.91
2023-01-24T02:29:31.783Z,1.91
2023-01-24T02:30:35.923Z,1.91
2023-01-24T02:31:40.215Z,1.92
2023-01-24T02:32:44.160Z,1.92
2023-01-24T02:33:48.338Z,1.93
2023-01-24T02:34:52.575Z,1.94
2023-01-24T02:35:56.626Z,1.95
2023-01-24T02:37:00.839Z,1.96
2023-01-24T02:38:05.019Z,1.97
2023-01-24T02:39:09.167Z,1.97
2023-01-24T02:40:13.348Z,1.98
2023-01-24T02:41:17.615Z,1.98
2023-01-24T02:42:22.001Z,1.98
2023-01-24T02:43:25.917Z,2.00
2023-01-24T02:44:30.084Z,2.02
2023-01-24T02:47:01.212Z,1.99
2023-01-24T02:48:05.312Z,1.99
2023-01-24T02:49:09.387Z,2.02
2023-01-24T02:50:13.812Z,2.04
2023-01-24T02:51:17.805Z,1.98
2023-01-24T02:52:21.984Z,1.97
2023-01-24T02:53:26.149Z,1.95
2023-01-24T02:54:30.368Z,1.96
2023-01-24T02:55:34.514Z,1.97
2023-01-24T02:56:38.709Z,2.00
2023-01-24T02:57:42.941Z,2.04
2023-01-24T02:58:46.999Z,2.07
2023-01-24T02:59:51.102Z,2.12
2023-01-24T03:00:55.271Z,2.17
2023-01-24T03:01:59.507Z,2.21
2023-01-24T03:03:03.613Z,2.24
2023-01-24T03:04:07.795Z,2.29
2023-01-24T03:05:15.016Z,2.32
2023-01-24T03:06:18.277Z,2.34
2023-01-24T03:07:22.421Z,2.36
2023-01-24T03:08:26.580Z,2.36
2023-01-24T03:09:30.706Z,2.38
2023-01-24T03:10:35.049Z,2.38
2023-01-24T03:11:39.190Z,2.38
2023-01-24T03:12:43.346Z,2.38
2023-01-24T03:13:47.545Z,2.37
2023-01-24T03:14:51.669Z,2.37
2023-01-24T03:15:55.806Z,2.30
2023-01-24T03:17:13.961Z,2.24
2023-01-24T03:18:16.743Z,2.19
2023-01-24T03:19:20.848Z,2.18
2023-01-24T03:20:25.086Z,2.18
2023-01-24T03:21:32.248Z,2.13
2023-01-24T03:22:35.482Z,2.06
2023-01-24T03:23:39.764Z,1.96
2023-01-24T03:24:43.896Z,1.90
2023-01-24T03:25:48.162Z,1.88
2023-01-24T03:26:52.261Z,1.86
2023-01-24T03:27:56.314Z,1.85
2023-01-24T03:29:00.553Z,1.83
2023-01-24T03:30:04.748Z,1.82
2023-01-24T03:31:08.903Z,1.81
2023-01-24T03:32:13.239Z,1.79
2023-01-24T03:33:17.206Z,1.78
2023-01-24T03:34:21.412Z,1.77
2023-01-24T03:35:25.586Z,1.77
2023-01-24T03:36:29.885Z,1.77
2023-01-24T03:37:33.976Z,1.73
2023-01-24T03:38:38.159Z,1.72
2023-01-24T03:39:42.300Z,1.70
2023-01-24T03:40:46.464Z,1.70
2023-01-24T03:41:50.651Z,1.65
2023-01-24T03:42:54.846Z,1.64
2023-01-24T03:43:59.044Z,1.64
2023-01-24T03:45:03.316Z,1.64
2023-01-24T03:46:07.520Z,1.65
2023-01-24T03:47:11.668Z,1.64
2023-01-24T03:48:15.784Z,1.64
2023-01-24T03:49:19.801Z,1.63
2023-01-24T03:50:24.042Z,1.62
2023-01-24T03:51:28.295Z,1.59
2023-01-24T03:52:32.417Z,1.59
2023-01-24T03:53:36.417Z,1.61
2023-01-24T03:54:40.599Z,1.62
2023-01-24T03:55:44.653Z,1.64
2023-01-24T03:56:50.015Z,1.62
2023-01-24T03:57:52.983Z,1.59
2023-01-24T03:59:03.270Z,1.57
2023-01-24T04:00:06.026Z,1.55
2023-01-24T04:01:10.256Z,1.56
2023-01-24T04:02:14.225Z,1.59
2023-01-24T04:03:18.310Z,1.61
2023-01-24T04:04:22.544Z,1.61
2023-01-24T04:05:26.737Z,1.60
2023-01-24T04:06:30.873Z,1.61
2023-01-24T04:07:35.053Z,1.60
2023-01-24T04:08:39.265Z,1.58
2023-01-24T04:09:43.389Z,1.58
2023-01-24T04:10:47.567Z,1.59
2023-01-24T04:11:51.641Z,1.60
2023-01-24T04:12:55.853Z,1.63
2023-01-24T04:14:00.025Z,1.64
2023-01-24T04:15:04.355Z,1.66
2023-01-24T04:16:08.572Z,1.66
2023-01-24T04:17:15.554Z,1.66
2023-01-24T04:18:18.697Z,1.65
2023-01-24T04:19:23.016Z,1.64
2023-01-24T04:20:27.091Z,1.62
2023-01-24T04:21:31.262Z,1.61
2023-01-24T04:22:35.466Z,1.60
2023-01-24T04:23:39.608Z,1.61
2023-01-24T04:24:43.928Z,1.62
2023-01-24T04:25:48.043Z,1.61
2023-01-24T04:26:52.127Z,1.61
2023-01-24T04:27:56.324Z,1.60
2023-01-24T04:29:00.546Z,1.61
2023-01-24T04:30:04.841Z,1.63
2023-01-24T04:31:09.030Z,1.63
2023-01-24T04:32:13.034Z,1.63
2023-01-24T04:33:17.147Z,1.62
2023-01-24T04:34:21.393Z,1.63
2023-01-24T04:35:25.771Z,1.65
2023-01-24T04:36:29.663Z,1.66
2023-01-24T04:37:34.029Z,1.66
2023-01-24T04:38:38.159Z,1.64
2023-01-24T04:39:42.217Z,1.62
2023-01-24T04:40:46.559Z,1.60
2023-01-24T04:41:50.755Z,1.62
2023-01-24T04:42:54.794Z,1.62
2023-01-24T04:43:59.139Z,1.62
2023-01-24T04:45:03.119Z,1.62
2023-01-24T04:46:07.370Z,1.64
2023-01-24T04:47:11.883Z,1.63
2023-01-24T04:48:15.819Z,1.64
2023-01-24T04:49:20.920Z,1.64
2023-01-24T04:50:24.588Z,1.66
2023-01-24T04:51:28.837Z,1.68
2023-01-24T04:52:33.034Z,1.68
2023-01-24T04:53:37.133Z,1.69
2023-01-24T04:54:41.311Z,1.71
2023-01-24T04:55:45.387Z,1.71
2023-01-24T04:56:49.743Z,1.72
2023-01-24T04:57:53.863Z,1.74
2023-01-24T04:58:58.105Z,1.73
2023-01-24T05:00:02.116Z,1.70
2023-01-24T05:01:06.335Z,1.68
2023-01-24T05:02:10.598Z,1.67
2023-01-24T05:03:14.765Z,1.66
2023-01-24T05:04:18.894Z,1.65
2023-01-24T05:05:23.211Z,1.63
2023-01-24T05:06:27.111Z,1.62
2023-01-24T05:07:31.152Z,1.62
2023-01-24T05:08:35.513Z,1.61
2023-01-24T05:09:39.592Z,1.60
2023-01-24T05:10:43.686Z,1.56
2023-01-24T05:11:47.882Z,1.56
2023-01-24T05:12:52.063Z,1.55
2023-01-24T05:13:56.096Z,1.53
2023-01-24T05:15:00.323Z,1.52
2023-01-24T05:16:04.500Z,1.52
2023-01-24T05:17:08.715Z,1.53
2023-01-24T05:18:12.752Z,1.53
2023-01-24T05:19:16.891Z,1.52
2023-01-24T05:20:21.320Z,1.52
2023-01-24T05:21:25.327Z,1.51
2023-01-24T05:22:29.550Z,1.53
2023-01-24T05:23:33.626Z,1.53
2023-01-24T05:24:37.851Z,1.51
2023-01-24T05:25:41.920Z,1.51
2023-01-24T05:26:46.161Z,1.49
2023-01-24T05:27:50.315Z,1.47
2023-01-24T05:28:54.500Z,1.47
2023-01-24T05:29:58.631Z,1.48
2023-01-24T05:31:02.843Z,1.47
2023-01-24T05:32:06.949Z,1.44
2023-01-24T05:33:11.052Z,1.42
2023-01-24T05:34:15.213Z,1.41
2023-01-24T05:35:19.418Z,1.42
2023-01-24T05:36:23.670Z,1.42
2023-01-24T05:37:27.808Z,1.41
2023-01-24T05:38:31.929Z,1.44
2023-01-24T05:39:39.097Z,1.43
2023-01-24T05:40:42.318Z,1.46
2023-01-24T05:41:46.608Z,1.45
2023-01-24T05:42:50.584Z,1.46
2023-01-24T05:43:54.766Z,1.44
2023-01-24T05:44:58.925Z,1.43
2023-01-24T05:46:03.250Z,1.41
2023-01-24T05:47:07.299Z,1.40
2023-01-24T05:48:11.450Z,1.37
2023-01-24T05:49:15.538Z,1.37
2023-01-24T05:50:19.719Z,1.35
2023-01-24T05:51:24.053Z,1.35
2023-01-24T05:52:28.296Z,1.32
2023-01-24T05:53:38.281Z,1.30
2023-01-24T05:54:40.925Z,1.30
2023-01-24T05:55:45.193Z,1.28
2023-01-24T05:56:49.389Z,1.24
2023-01-24T05:57:53.511Z,1.23
2023-01-24T05:58:57.669Z,1.20
2023-01-24T06:00:01.896Z,1.18
2023-01-24T06:01:06.023Z,1.15
2023-01-24T06:02:10.211Z,1.14
2023-01-24T06:03:14.485Z,1.11
2023-01-24T06:04:18.554Z,1.08
2023-01-24T06:05:23.180Z,1.07
2023-01-24T06:06:26.809Z,1.10
2023-01-24T06:07:31.195Z,1.10
2023-01-24T06:08:35.318Z,1.09
2023-01-24T06:09:39.329Z,1.09
2023-01-24T06:10:43.550Z,1.04
2023-01-24T06:11:47.689Z,1.02
2023-01-24T06:12:51.747Z,0.99
2023-01-24T06:13:55.982Z,0.96
2023-01-24T06:15:00.235Z,0.96
2023-01-24T06:16:04.530Z,0.94
2023-01-24T06:17:08.480Z,0.92
2023-01-24T06:18:12.612Z,0.93
2023-01-24T06:19:16.827Z,0.96
2023-01-24T06:20:20.965Z,0.98
2023-01-24T06:21:25.114Z,1.00
2023-01-24T06:22:29.271Z,0.99
2023-01-24T06:23:33.573Z,1.00
2023-01-24T06:24:37.527Z,1.02
2023-01-24T06:25:41.641Z,1.04
2023-01-24T06:26:45.756Z,1.06
2023-01-24T06:27:49.904Z,1.07
2023-01-24T06:28:54.155Z,1.07
2023-01-24T06:29:58.161Z,1.09
2023-01-24T06:31:02.662Z,1.10
2023-01-24T06:32:06.674Z,1.12
2023-01-24T06:33:10.735Z,1.13
2023-01-24T06:34:15.038Z,1.12
2023-01-24T06:35:19.056Z,1.12
2023-01-24T06:36:23.277Z,1.11
2023-01-24T06:37:27.431Z,1.08
2023-01-24T06:38:31.626Z,1.08
2023-01-24T06:39:35.782Z,1.08
2023-01-24T06:40:39.968Z,1.06
2023-01-24T06:41:58.351Z,1.02
2023-01-24T06:43:01.160Z,0.98
2023-01-24T06:44:05.244Z,0.95
2023-01-24T06:45:09.358Z,0.96
2023-01-24T06:46:13.624Z,0.89
2023-01-24T06:47:17.691Z,0.89
2023-01-24T06:48:21.862Z,0.89
2023-01-24T06:49:26.155Z,0.87
2023-01-24T06:50:30.163Z,0.89
2023-01-24T06:51:34.382Z,0.90
2023-01-24T06:52:38.464Z,0.91
2023-01-24T06:53:42.877Z,0.91
2023-01-24T06:54:47.001Z,0.94
2023-01-24T06:55:51.116Z,0.99
2023-01-24T06:56:55.291Z,1.02
2023-01-24T06:57:59.530Z,1.02
2023-01-24T06:59:03.766Z,1.02
2023-01-24T07:00:07.870Z,1.02
2023-01-24T07:01:12.059Z,1.03
2023-01-24T07:02:16.176Z,1.02
2023-01-24T07:03:21.638Z,1.03
2023-01-24T07:04:24.483Z,1.03
2023-01-24T07:05:28.791Z,1.03
2023-01-24T07:06:32.893Z,1.02
2023-01-24T07:07:37.054Z,1.00
2023-01-24T07:08:41.221Z,0.99
2023-01-24T07:09:48.293Z,0.98
2023-01-24T07:10:51.688Z,0.96
2023-01-24T07:11:55.660Z,0.93
2023-01-24T07:12:59.923Z,0.92
2023-01-24T07:14:04.030Z,0.92
2023-01-24T07:15:08.290Z,0.91
2023-01-24T07:16:12.512Z,0.93
2023-01-24T07:17:16.879Z,0.99
2023-01-24T07:18:20.936Z,1.04
2023-01-24T07:19:25.207Z,1.08
2023-01-24T07:20:29.395Z,1.14
2023-01-24T07:21:33.537Z,1.19
2023-01-24T07:22:37.740Z,1.24
2023-01-24T07:23:41.915Z,1.22
2023-01-24T07:24:46.096Z,1.19
2023-01-24T07:25:50.303Z,1.14
2023-01-24T07:26:54.453Z,1.08
2023-01-24T07:27:58.526Z,1.04
2023-01-24T07:29:02.685Z,1.01
2023-01-24T07:30:06.908Z,0.99
2023-01-24T07:31:11.273Z,0.98
2023-01-24T07:32:15.468Z,0.96
2023-01-24T07:33:19.454Z,0.96
2023-01-24T07:34:23.651Z,0.94
2023-01-24T07:35:27.838Z,0.94
2023-01-24T07:36:31.856Z,0.89
2023-01-24T07:37:36.097Z,0.82
2023-01-24T07:38:40.267Z,0.79
2023-01-24T07:39:58.502Z,0.78
2023-01-24T07:41:01.569Z,0.78
2023-01-24T07:42:05.749Z,0.77
2023-01-24T07:43:09.819Z,0.76
2023-01-24T07:44:14.012Z,0.77
2023-01-24T07:45:18.185Z,0.80
2023-01-24T07:46:22.412Z,0.81
2023-01-24T07:47:27.459Z,0.80
2023-01-24T07:48:31.329Z,0.79
2023-01-24T07:49:35.343Z,0.82
2023-01-24T07:50:40.467Z,0.86
2023-01-24T07:51:44.256Z,0.88
2023-01-24T07:52:48.416Z,0.88
2023-01-24T07:53:52.679Z,0.89
2023-01-24T07:54:56.886Z,0.92
2023-01-24T07:56:02.651Z,0.97
2023-01-24T07:57:05.146Z,1.03
2023-01-24T07:58:09.333Z,1.08
2023-01-24T07:59:14.841Z,1.12
2023-01-24T08:00:17.473Z,1.16
2023-01-24T08:01:21.691Z,1.20
2023-01-24T08:02:25.917Z,1.25
2023-01-24T08:03:30.099Z,1.26
2023-01-24T08:04:35.220Z,1.29
2023-01-24T08:05:38.416Z,1.30
2023-01-24T08:06:42.731Z,1.28
2023-01-24T08:07:46.865Z,1.21
2023-01-24T08:08:51.047Z,1.17
2023-01-24T08:09:55.413Z,1.14
2023-01-24T08:10:59.463Z,1.10
2023-01-24T08:12:03.726Z,1.08
2023-01-24T08:13:07.904Z,1.07
2023-01-24T08:14:12.042Z,1.02
2023-01-24T08:15:16.105Z,0.99
2023-01-24T08:16:20.368Z,0.98
2023-01-24T08:17:24.389Z,0.97
2023-01-24T08:18:28.594Z,0.99
2023-01-24T08:19:54.788Z,1.01
2023-01-24T08:20:36.956Z,1.00
2023-01-24T08:21:41.163Z,0.98
2023-01-24T08:22:57.034Z,0.95
2023-01-24T08:23:49.526Z,0.92
2023-01-24T08:24:53.582Z,0.88
2023-01-24T08:25:58.724Z,0.86
2023-01-24T08:27:02.381Z,0.83
2023-01-24T08:28:06.661Z,0.81
2023-01-24T08:29:10.786Z,0.80
2023-01-24T08:30:16.681Z,0.77
2023-01-24T08:31:19.132Z,0.75
2023-01-24T08:32:23.398Z,0.72
2023-01-24T08:33:27.347Z,0.69
2023-01-24T08:34:31.593Z,0.67
2023-01-24T08:35:38.211Z,0.68
2023-01-24T08:36:39.879Z,0.66
2023-01-24T08:37:44.173Z,0.66
2023-01-24T08:38:48.301Z,0.69
2023-01-24T08:39:52.352Z,0.67
2023-01-24T08:40:56.521Z,0.66
2023-01-24T08:42:00.757Z,0.66
2023-01-24T08:43:04.911Z,0.68
2023-01-24T08:44:11.386Z,0.69
2023-01-24T08:45:14.806Z,0.71
2023-01-24T08:46:21.955Z,0.70
2023-01-24T08:47:27.624Z,0.70
2023-01-24T08:48:29.855Z,0.70
2023-01-24T08:49:34.026Z,0.69
2023-01-24T08:50:38.177Z,0.68
2023-01-24T08:51:42.391Z,0.71
2023-01-24T08:52:46.495Z,0.72
2023-01-24T08:53:50.628Z,0.73
2023-01-24T08:54:54.803Z,0.75
2023-01-24T08:55:59.872Z,0.74
2023-01-24T08:57:03.666Z,0.73
2023-01-24T08:58:07.894Z,0.72
2023-01-24T08:59:12.060Z,0.72
2023-01-24T09:00:16.224Z,0.73
2023-01-24T09:01:20.271Z,0.71
2023-01-24T09:02:24.575Z,0.68
2023-01-24T09:03:28.757Z,0.66
2023-01-24T09:04:32.881Z,0.66
2023-01-24T09:05:37.140Z,0.66
2023-01-24T09:06:41.191Z,0.68
2023-01-24T09:07:45.472Z,0.73
2023-01-24T09:08:49.598Z,0.80
2023-01-24T09:09:53.716Z,0.88
2023-01-24T09:10:57.903Z,0.93
2023-01-24T09:12:02.075Z,0.93
2023-01-24T09:13:06.366Z,0.90
2023-01-24T09:14:10.458Z,0.88
2023-01-24T09:15:14.683Z,0.87
2023-01-24T09:16:18.904Z,0.86
2023-01-24T09:17:23.011Z,0.85
2023-01-24T09:18:27.242Z,0.83
2023-01-24T09:19:31.327Z,0.83
2023-01-24T09:20:35.543Z,0.82
2023-01-24T09:21:39.719Z,0.79
2023-01-24T09:22:43.884Z,0.77
2023-01-24T09:23:48.016Z,0.74
2023-01-24T09:24:52.101Z,0.71
2023-01-24T09:25:56.413Z,0.71
2023-01-24T09:27:00.479Z,0.70
2023-01-24T09:28:04.707Z,0.71
2023-01-24T09:29:10.708Z,0.71
2023-01-24T09:30:12.975Z,0.72
2023-01-24T09:31:17.204Z,0.73
2023-01-24T09:32:21.452Z,0.74
2023-01-24T09:33:25.272Z,0.75
2023-01-24T09:34:29.559Z,0.75
2023-01-24T09:35:33.725Z,0.75
2023-01-24T09:36:37.957Z,0.76
2023-01-24T09:37:42.045Z,0.77
2023-01-24T09:38:59.936Z,0.79
2023-01-24T09:39:50.484Z,0.81
2023-01-24T09:40:54.661Z,0.85
2023-01-24T09:42:10.464Z,0.85
2023-01-24T09:43:02.994Z,0.85
2023-01-24T09:44:07.095Z,0.88
2023-01-24T09:45:11.237Z,0.88
2023-01-24T09:46:15.473Z,0.92
2023-01-24T09:47:19.535Z,0.96
2023-01-24T09:48:23.733Z,1.03
2023-01-24T09:49:27.918Z,1.10
2023-01-24T09:50:32.074Z,1.15
2023-01-24T09:51:36.249Z,1.20
2023-01-24T09:52:40.455Z,1.24
2023-01-24T09:53:44.878Z,1.29
2023-01-24T09:54:48.925Z,1.32
2023-01-24T09:55:53.077Z,1.35
2023-01-24T09:56:57.270Z,1.38
2023-01-24T09:58:01.428Z,1.41
2023-01-24T09:59:05.481Z,1.43
2023-01-24T10:00:09.701Z,1.44
2023-01-24T10:01:13.903Z,1.46
2023-01-24T10:02:18.120Z,1.44
2023-01-24T10:03:22.375Z,1.44
2023-01-24T10:04:26.428Z,1.44
2023-01-24T10:06:57.709Z,1.45
2023-01-24T10:08:01.794Z,1.48
2023-01-24T10:09:05.890Z,1.51
2023-01-24T10:10:10.051Z,1.53
2023-01-24T10:11:14.306Z,1.55
2023-01-24T10:12:18.457Z,1.54
2023-01-24T10:13:22.592Z,1.53
2023-01-24T10:14:29.805Z,1.51
2023-01-24T10:15:33.113Z,1.40
2023-01-24T10:16:37.355Z,1.19
2023-01-24T10:17:41.407Z,0.91
2023-01-24T10:18:45.708Z,0.79
2023-01-24T10:19:49.883Z,0.71
2023-01-24T10:20:54.026Z,0.65
2023-01-24T10:21:58.086Z,0.63
2023-01-24T10:23:02.373Z,0.61
2023-01-24T10:24:06.701Z,0.60
2023-01-24T10:25:10.792Z,0.60
2023-01-24T10:26:15.940Z,0.62
2023-01-24T10:27:19.766Z,0.62
2023-01-24T10:28:24.067Z,0.63
2023-01-24T10:29:28.979Z,0.68
2023-01-24T10:30:32.894Z,0.72
2023-01-24T10:31:37.121Z,0.73
2023-01-24T10:32:41.117Z,0.76
2023-01-24T10:33:45.298Z,0.77
2023-01-24T10:34:49.450Z,0.78
2023-01-24T10:35:53.537Z,0.77
2023-01-24T10:36:57.754Z,0.75
2023-01-24T10:38:01.928Z,0.72
2023-01-24T10:39:06.178Z,0.70
2023-01-24T10:40:10.245Z,0.63
2023-01-24T10:41:14.345Z,0.62
2023-01-24T10:42:18.493Z,0.65
2023-01-24T10:43:23.640Z,0.70
2023-01-24T10:44:27.304Z,0.70
2023-01-24T10:45:31.487Z,0.66
2023-01-24T10:46:35.667Z,0.63
2023-01-24T10:47:39.872Z,0.62
2023-01-24T10:48:43.989Z,0.64
2023-01-24T10:49:48.222Z,0.66
2023-01-24T10:50:52.348Z,0.70
2023-01-24T10:51:56.418Z,0.75
2023-01-24T10:53:00.724Z,0.80
2023-01-24T10:54:04.716Z,0.85
2023-01-24T10:55:08.986Z,0.89
2023-01-24T10:56:13.062Z,0.86
2023-01-24T10:57:17.369Z,0.90
2023-01-24T10:58:21.520Z,0.87
2023-01-24T10:59:25.706Z,0.86
2023-01-24T11:00:29.769Z,0.86
2023-01-24T11:01:35.078Z,0.89
2023-01-24T11:02:38.892Z,0.94
2023-01-24T11:03:45.909Z,0.93
2023-01-24T11:04:49.158Z,0.86
2023-01-24T11:05:53.217Z,0.80
2023-01-24T11:06:57.378Z,0.71
2023-01-24T11:08:01.607Z,0.66
2023-01-24T11:09:05.754Z,0.59
2023-01-24T11:10:09.881Z,0.55
2023-01-24T11:11:14.105Z,0.52
2023-01-24T11:12:18.408Z,0.53
2023-01-24T11:13:22.479Z,0.53
2023-01-24T11:14:26.606Z,0.52
2023-01-24T11:15:30.886Z,0.50
2023-01-24T11:16:34.988Z,0.50
2023-01-24T11:17:39.152Z,0.48
2023-01-24T11:18:43.316Z,0.50
2023-01-24T11:19:47.474Z,0.50
2023-01-24T11:20:51.753Z,0.51
2023-01-24T11:21:55.725Z,0.52
2023-01-24T11:22:59.915Z,0.53
2023-01-24T11:24:04.005Z,0.55
2023-01-24T11:25:08.224Z,0.56
2023-01-24T11:26:12.395Z,0.58
2023-01-24T11:27:16.589Z,0.60
2023-01-24T11:28:20.825Z,0.60
2023-01-24T11:29:25.019Z,0.59
2023-01-24T11:30:29.025Z,0.59
2023-01-24T11:31:33.408Z,0.60
2023-01-24T11:32:38.308Z,0.61
2023-01-24T11:33:42.025Z,0.61
2023-01-24T11:34:46.329Z,0.59
2023-01-24T11:35:50.431Z,0.59
2023-01-24T11:36:54.434Z,0.59
2023-01-24T11:37:58.649Z,0.60
2023-01-24T11:39:02.792Z,0.60
2023-01-24T11:40:07.010Z,0.57
2023-01-24T11:41:11.095Z,0.57
2023-01-24T11:42:14.857Z,0.57
2023-01-24T11:43:19.025Z,0.56
2023-01-24T11:44:23.199Z,0.55
2023-01-24T11:45:27.366Z,0.56
2023-01-24T11:46:31.525Z,0.57
2023-01-24T11:47:35.766Z,0.57
2023-01-24T11:48:39.772Z,0.57
2023-01-24T11:49:43.990Z,0.57
2023-01-24T11:50:48.051Z,0.61
2023-01-24T11:51:52.258Z,0.66
2023-01-24T11:52:56.401Z,0.72
2023-01-24T11:54:00.652Z,0.72
2023-01-24T11:55:04.861Z,0.70
2023-01-24T11:56:09.050Z,0.73
2023-01-24T11:57:13.192Z,0.77
2023-01-24T11:58:17.246Z,0.79
2023-01-24T11:59:21.514Z,0.84
2023-01-24T12:00:25.548Z,0.90
2023-01-24T12:01:29.773Z,0.97
2023-01-24T12:02:33.932Z,1.02
2023-01-24T12:03:38.152Z,1.07
2023-01-24T12:04:42.355Z,1.07
2023-01-24T12:05:46.536Z,1.10
2023-01-24T12:06:50.682Z,1.07
2023-01-24T12:07:54.740Z,1.07
2023-01-24T12:08:58.896Z,1.04
2023-01-24T12:10:03.156Z,1.01
2023-01-24T12:11:22.825Z,0.99
2023-01-24T12:12:11.504Z,0.99
2023-01-24T12:13:15.710Z,1.00
2023-01-24T12:14:19.850Z,1.00
2023-01-24T12:15:24.602Z,0.98
2023-01-24T12:16:28.312Z,1.00
2023-01-24T12:17:32.308Z,0.96
2023-01-24T12:18:36.426Z,0.92
2023-01-24T12:19:40.585Z,0.92
2023-01-24T12:20:44.877Z,0.96
2023-01-24T12:21:49.123Z,0.99
2023-01-24T12:22:53.095Z,1.03
2023-01-24T12:23:57.386Z,1.09
2023-01-24T12:25:01.498Z,1.15
2023-01-24T12:26:05.621Z,1.17
2023-01-24T12:27:09.804Z,1.21
2023-01-24T12:28:13.948Z,1.21
2023-01-24T12:29:18.081Z,1.11
2023-01-24T12:30:22.612Z,1.11
2023-01-24T12:31:26.511Z,1.11
2023-01-24T12:32:30.563Z,1.11
2023-01-24T12:33:34.698Z,1.14
2023-01-24T12:34:38.730Z,1.15
2023-01-24T12:35:42.974Z,1.17
2023-01-24T12:36:47.047Z,1.17
2023-01-24T12:37:56.697Z,1.17
2023-01-24T12:38:55.506Z,1.13
2023-01-24T12:39:59.632Z,1.09
2023-01-24T12:41:03.858Z,1.08
2023-01-24T12:42:08.537Z,1.08
2023-01-24T12:43:12.150Z,1.09
2023-01-24T12:44:16.328Z,1.08
2023-01-24T12:45:20.929Z,1.05
2023-01-24T12:46:24.799Z,1.00
2023-01-24T12:47:28.914Z,0.93
2023-01-24T12:48:32.985Z,0.88
2023-01-24T12:49:44.828Z,0.85
2023-01-24T12:50:41.266Z,0.81
2023-01-24T12:51:45.382Z,0.76
2023-01-24T12:52:50.133Z,0.70
2023-01-24T12:53:53.753Z,0.69
2023-01-24T12:54:58.026Z,0.66
2023-01-24T12:56:02.146Z,0.65
2023-01-24T12:57:06.452Z,0.62
2023-01-24T12:58:10.592Z,0.59
2023-01-24T12:59:15.628Z,0.57
2023-01-24T13:00:33.440Z,0.55
2023-01-24T13:01:36.395Z,0.53
2023-01-24T13:02:40.558Z,0.55
2023-01-24T13:03:44.685Z,0.56
2023-01-24T13:04:48.919Z,0.56
2023-01-24T13:05:53.929Z,0.55
2023-01-24T13:06:57.708Z,0.53
2023-01-24T13:08:01.859Z,0.49
2023-01-24T13:09:06.036Z,0.51
2023-01-24T13:10:11.119Z,0.56
2023-01-24T13:11:14.886Z,0.63
2023-01-24T13:12:19.048Z,0.71
2023-01-24T13:13:23.246Z,0.77
2023-01-24T13:14:27.423Z,0.84
2023-01-24T13:15:32.553Z,0.90
2023-01-24T13:16:35.899Z,0.95
2023-01-24T13:17:40.025Z,1.00
2023-01-24T13:18:44.210Z,1.04
2023-01-24T13:19:48.482Z,1.08
2023-01-24T13:20:52.727Z,1.08
2023-01-24T13:21:59.954Z,1.08
2023-01-24T13:23:03.347Z,1.11
2023-01-24T13:24:07.400Z,1.12
2023-01-24T13:25:11.533Z,1.12
2023-01-24T13:26:15.761Z,1.13
2023-01-24T13:27:19.877Z,1.14
2023-01-24T13:28:24.062Z,1.15
2023-01-24T13:29:28.241Z,1.16
2023-01-24T13:30:32.567Z,1.17
2023-01-24T13:31:36.694Z,1.18
2023-01-24T13:32:40.662Z,1.14
2023-01-24T13:33:44.862Z,1.10
2023-01-24T13:34:49.271Z,1.04
2023-01-24T13:35:53.374Z,1.02
2023-01-24T13:36:57.357Z,1.02
2023-01-24T13:38:01.696Z,1.03
2023-01-24T13:39:05.863Z,1.04
2023-01-24T13:40:10.163Z,1.08
2023-01-24T13:41:14.266Z,1.11
2023-01-24T13:42:18.447Z,1.13
2023-01-24T13:43:22.580Z,1.14
2023-01-24T13:44:26.739Z,1.16
2023-01-24T13:45:31.076Z,1.16
2023-01-24T13:46:35.446Z,1.17
2023-01-24T13:47:39.229Z,1.20
2023-01-24T13:48:43.485Z,1.22
2023-01-24T13:49:47.568Z,1.23
2023-01-24T13:50:51.868Z,1.23
2023-01-24T13:51:55.864Z,1.25
2023-01-24T13:53:00.023Z,1.23
2023-01-24T13:54:04.221Z,1.23
2023-01-24T13:55:08.410Z,1.20
2023-01-24T13:56:13.624Z,1.17
2023-01-24T13:57:17.477Z,0.93
2023-01-24T13:58:21.690Z,0.75
2023-01-24T13:59:25.818Z,0.60
2023-01-24T14:00:29.966Z,0.56
2023-01-24T14:01:34.224Z,0.57
2023-01-24T14:02:38.542Z,0.59
2023-01-24T14:03:42.567Z,0.62
2023-01-24T14:04:46.784Z,0.64
2023-01-24T14:05:50.844Z,0.62
2023-01-24T14:06:55.163Z,0.57
2023-01-24T14:08:02.389Z,0.52
2023-01-24T14:09:05.495Z,0.48
2023-01-24T14:10:09.911Z,0.48
2023-01-24T14:11:15.140Z,0.49
2023-01-24T14:12:18.685Z,0.50
2023-01-24T14:13:22.999Z,0.48
2023-01-24T14:14:27.227Z,0.48
2023-01-24T14:15:31.416Z,0.52
2023-01-24T14:16:35.855Z,0.58
2023-01-24T14:17:39.670Z,0.62
2023-01-24T14:18:43.818Z,0.66